sensor_id;sensor_type;location;lat;lon;timestamp;temperature;humidity
70294;DHT22;74367;35.280;-77.632;2023-12-04T00:01:55;19.93;91.90
70294;DHT22;74367;35.280;-77.632;2023-12-04T00:04:21;19.97;91.85
70294;DHT22;74367;35.280;-77.632;2023-12-04T00:06:47;19.97;92.20
70294;DHT22;74367;35.280;-77.632;2023-12-04T00:09:12;20.00;91.95
70294;DHT22;74367;35.280;-77.632;2023-12-04T00:11:38;19.92;92.09
70294;DHT22;74367;35.280;-77.632;2023-12-04T00:14:04;19.92;92.12
70294;DHT22;74367;35.280;-77.632;2023-12-04T00:16:33;19.93;92.08
70294;DHT22;74367;35.280;-77.632;2023-12-04T00:19:01;19.87;92.45
70294;DHT22;74367;35.280;-77.632;2023-12-04T00:21:27;19.86;92.36
70294;DHT22;74367;35.280;-77.632;2023-12-04T00:23:53;19.92;92.34
70294;DHT22;74367;35.280;-77.632;2023-12-04T00:26:19;19.95;91.95
70294;DHT22;74367;35.280;-77.632;2023-12-04T00:28:45;19.93;92.04
70294;DHT22;74367;35.280;-77.632;2023-12-04T00:31:11;19.86;92.55
70294;DHT22;74367;35.280;-77.632;2023-12-04T00:33:37;19.92;92.27
70294;DHT22;74367;35.280;-77.632;2023-12-04T00:36:03;19.97;92.10
70294;DHT22;74367;35.280;-77.632;2023-12-04T00:38:29;19.89;92.23
70294;DHT22;74367;35.280;-77.632;2023-12-04T00:40:55;19.83;92.53
70294;DHT22;74367;35.280;-77.632;2023-12-04T00:43:21;19.79;92.71
70294;DHT22;74367;35.280;-77.632;2023-12-04T00:45:47;19.82;92.68
70294;DHT22;74367;35.280;-77.632;2023-12-04T00:48:13;19.83;92.57
70294;DHT22;74367;35.280;-77.632;2023-12-04T00:50:39;19.81;92.74
70294;DHT22;74367;35.280;-77.632;2023-12-04T00:53:05;19.76;92.66
70294;DHT22;74367;35.280;-77.632;2023-12-04T00:55:31;19.79;92.81
70294;DHT22;74367;35.280;-77.632;2023-12-04T00:57:57;19.72;93.15
70294;DHT22;74367;35.280;-77.632;2023-12-04T01:00:23;19.72;93.01
70294;DHT22;74367;35.280;-77.632;2023-12-04T01:02:48;19.75;92.97
70294;DHT22;74367;35.280;-77.632;2023-12-04T01:05:14;19.75;93.03
70294;DHT22;74367;35.280;-77.632;2023-12-04T01:07:40;19.64;93.51
70294;DHT22;74367;35.280;-77.632;2023-12-04T01:10:07;19.64;93.74
70294;DHT22;74367;35.280;-77.632;2023-12-04T01:12:33;19.58;93.24
70294;DHT22;74367;35.280;-77.632;2023-12-04T01:14:58;19.57;93.64
70294;DHT22;74367;35.280;-77.632;2023-12-04T01:17:24;19.59;93.64
70294;DHT22;74367;35.280;-77.632;2023-12-04T01:19:50;19.55;93.62
70294;DHT22;74367;35.280;-77.632;2023-12-04T01:22:16;19.57;93.65
70294;DHT22;74367;35.280;-77.632;2023-12-04T01:24:42;19.54;93.64
70294;DHT22;74367;35.280;-77.632;2023-12-04T01:27:08;19.50;93.65
70294;DHT22;74367;35.280;-77.632;2023-12-04T01:29:34;19.50;94.04
70294;DHT22;74367;35.280;-77.632;2023-12-04T01:32:00;19.47;93.80
70294;DHT22;74367;35.280;-77.632;2023-12-04T01:34:26;19.44;93.93
70294;DHT22;74367;35.280;-77.632;2023-12-04T01:36:52;19.55;93.81
70294;DHT22;74367;35.280;-77.632;2023-12-04T01:39:18;19.59;93.53
70294;DHT22;74367;35.280;-77.632;2023-12-04T01:41:44;19.48;93.73
70294;DHT22;74367;35.280;-77.632;2023-12-04T01:44:11;19.43;93.97
70294;DHT22;74367;35.280;-77.632;2023-12-04T01:46:37;19.48;93.84
70294;DHT22;74367;35.280;-77.632;2023-12-04T01:49:04;19.53;93.92
70294;DHT22;74367;35.280;-77.632;2023-12-04T01:51:30;19.41;94.01
70294;DHT22;74367;35.280;-77.632;2023-12-04T01:53:59;19.35;94.17
70294;DHT22;74367;35.280;-77.632;2023-12-04T01:56:26;19.38;94.05
70294;DHT22;74367;35.280;-77.632;2023-12-04T01:58:52;19.34;94.26
70294;DHT22;74367;35.280;-77.632;2023-12-04T02:01:19;19.34;94.46
70294;DHT22;74367;35.280;-77.632;2023-12-04T02:03:45;19.34;94.42
70294;DHT22;74367;35.280;-77.632;2023-12-04T02:06:12;19.34;94.84
70294;DHT22;74367;35.280;-77.632;2023-12-04T02:08:40;19.30;94.60
70294;DHT22;74367;35.280;-77.632;2023-12-04T02:11:06;19.26;94.56
70294;DHT22;74367;35.280;-77.632;2023-12-04T02:13:33;19.27;94.65
70294;DHT22;74367;35.280;-77.632;2023-12-04T02:16:02;19.28;94.65
70294;DHT22;74367;35.280;-77.632;2023-12-04T02:18:32;19.27;94.26
70294;DHT22;74367;35.280;-77.632;2023-12-04T02:21:00;19.28;94.33
70294;DHT22;74367;35.280;-77.632;2023-12-04T02:23:27;19.28;94.63
70294;DHT22;74367;35.280;-77.632;2023-12-04T02:25:59;19.23;94.25
70294;DHT22;74367;35.280;-77.632;2023-12-04T02:28:32;19.27;94.42
70294;DHT22;74367;35.280;-77.632;2023-12-04T02:30:59;19.27;94.56
70294;DHT22;74367;35.280;-77.632;2023-12-04T02:33:27;19.21;94.46
70294;DHT22;74367;35.280;-77.632;2023-12-04T02:35:55;19.17;94.67
70294;DHT22;74367;35.280;-77.632;2023-12-04T02:38:22;19.10;94.85
70294;DHT22;74367;35.280;-77.632;2023-12-04T02:40:48;19.20;94.49
70294;DHT22;74367;35.280;-77.632;2023-12-04T02:43:14;19.20;94.52
70294;DHT22;74367;35.280;-77.632;2023-12-04T02:45:40;19.17;94.43
70294;DHT22;74367;35.280;-77.632;2023-12-04T02:48:06;19.16;94.45
70294;DHT22;74367;35.280;-77.632;2023-12-04T02:50:33;19.23;93.89
70294;DHT22;74367;35.280;-77.632;2023-12-04T02:52:59;19.13;94.33
70294;DHT22;74367;35.280;-77.632;2023-12-04T02:55:25;19.10;94.49
70294;DHT22;74367;35.280;-77.632;2023-12-04T02:57:51;19.08;94.27
70294;DHT22;74367;35.280;-77.632;2023-12-04T03:00:17;19.10;94.22
70294;DHT22;74367;35.280;-77.632;2023-12-04T03:02:45;19.03;94.74
70294;DHT22;74367;35.280;-77.632;2023-12-04T03:05:11;19.02;94.47
70294;DHT22;74367;35.280;-77.632;2023-12-04T03:07:37;18.96;94.42
70294;DHT22;74367;35.280;-77.632;2023-12-04T03:10:03;18.96;94.25
70294;DHT22;74367;35.280;-77.632;2023-12-04T03:12:29;18.90;94.63
70294;DHT22;74367;35.280;-77.632;2023-12-04T03:14:55;19.00;94.59
70294;DHT22;74367;35.280;-77.632;2023-12-04T03:17:21;18.99;94.40
70294;DHT22;74367;35.280;-77.632;2023-12-04T03:19:47;18.99;94.56
70294;DHT22;74367;35.280;-77.632;2023-12-04T03:22:13;19.04;93.85
70294;DHT22;74367;35.280;-77.632;2023-12-04T03:24:39;19.00;93.94
70294;DHT22;74367;35.280;-77.632;2023-12-04T03:27:05;18.97;94.17
70294;DHT22;74367;35.280;-77.632;2023-12-04T03:29:31;18.92;93.94
70294;DHT22;74367;35.280;-77.632;2023-12-04T03:31:57;18.95;93.83
70294;DHT22;74367;35.280;-77.632;2023-12-04T03:34:23;18.92;93.69
70294;DHT22;74367;35.280;-77.632;2023-12-04T03:36:49;18.93;93.41
70294;DHT22;74367;35.280;-77.632;2023-12-04T03:39:15;18.90;93.75
70294;DHT22;74367;35.280;-77.632;2023-12-04T03:41:41;18.80;93.24
70294;DHT22;74367;35.280;-77.632;2023-12-04T03:44:07;18.85;92.95
70294;DHT22;74367;35.280;-77.632;2023-12-04T03:46:33;18.82;93.10
70294;DHT22;74367;35.280;-77.632;2023-12-04T03:48:59;18.79;92.96
70294;DHT22;74367;35.280;-77.632;2023-12-04T03:51:25;18.77;92.99
70294;DHT22;74367;35.280;-77.632;2023-12-04T03:53:51;18.80;92.70
70294;DHT22;74367;35.280;-77.632;2023-12-04T03:56:17;18.76;92.90
70294;DHT22;74367;35.280;-77.632;2023-12-04T03:58:43;18.75;92.52
70294;DHT22;74367;35.280;-77.632;2023-12-04T04:01:08;18.69;92.49
70294;DHT22;74367;35.280;-77.632;2023-12-04T04:03:34;18.72;91.99
70294;DHT22;74367;35.280;-77.632;2023-12-04T04:06:00;18.79;91.94
70294;DHT22;74367;35.280;-77.632;2023-12-04T04:08:26;18.73;91.58
70294;DHT22;74367;35.280;-77.632;2023-12-04T04:10:52;18.73;91.64
70294;DHT22;74367;35.280;-77.632;2023-12-04T04:13:18;18.75;91.53
70294;DHT22;74367;35.280;-77.632;2023-12-04T04:15:44;18.73;92.06
70294;DHT22;74367;35.280;-77.632;2023-12-04T04:18:11;18.69;91.96
70294;DHT22;74367;35.280;-77.632;2023-12-04T04:20:37;18.85;90.55
70294;DHT22;74367;35.280;-77.632;2023-12-04T04:23:03;18.70;91.52
70294;DHT22;74367;35.280;-77.632;2023-12-04T04:25:29;18.66;91.87
70294;DHT22;74367;35.280;-77.632;2023-12-04T04:27:55;18.59;91.95
70294;DHT22;74367;35.280;-77.632;2023-12-04T04:30:20;18.58;91.66
70294;DHT22;74367;35.280;-77.632;2023-12-04T04:32:46;18.55;91.46
70294;DHT22;74367;35.280;-77.632;2023-12-04T04:35:12;18.59;91.71
70294;DHT22;74367;35.280;-77.632;2023-12-04T04:37:38;18.52;91.87
70294;DHT22;74367;35.280;-77.632;2023-12-04T04:40:05;18.52;92.04
70294;DHT22;74367;35.280;-77.632;2023-12-04T04:42:31;18.44;91.67
70294;DHT22;74367;35.280;-77.632;2023-12-04T04:44:57;18.45;91.76
70294;DHT22;74367;35.280;-77.632;2023-12-04T04:47:23;18.45;91.42
70294;DHT22;74367;35.280;-77.632;2023-12-04T04:49:49;18.42;91.55
70294;DHT22;74367;35.280;-77.632;2023-12-04T04:52:15;18.45;91.82
70294;DHT22;74367;35.280;-77.632;2023-12-04T04:54:41;18.44;91.54
70294;DHT22;74367;35.280;-77.632;2023-12-04T04:57:07;18.34;91.13
70294;DHT22;74367;35.280;-77.632;2023-12-04T04:59:33;18.38;91.23
70294;DHT22;74367;35.280;-77.632;2023-12-04T05:01:59;18.39;91.26
70294;DHT22;74367;35.280;-77.632;2023-12-04T05:04:25;18.45;91.65
70294;DHT22;74367;35.280;-77.632;2023-12-04T05:06:51;18.41;91.61
70294;DHT22;74367;35.280;-77.632;2023-12-04T05:09:17;18.34;91.81
70294;DHT22;74367;35.280;-77.632;2023-12-04T05:11:43;18.27;90.72
70294;DHT22;74367;35.280;-77.632;2023-12-04T05:14:09;18.22;91.18
70294;DHT22;74367;35.280;-77.632;2023-12-04T05:16:35;18.24;91.45
70294;DHT22;74367;35.280;-77.632;2023-12-04T05:19:01;18.28;90.42
70294;DHT22;74367;35.280;-77.632;2023-12-04T05:21:27;18.34;89.93
70294;DHT22;74367;35.280;-77.632;2023-12-04T05:23:53;18.24;90.75
70294;DHT22;74367;35.280;-77.632;2023-12-04T05:26:19;18.15;90.73
70294;DHT22;74367;35.280;-77.632;2023-12-04T05:28:45;18.07;91.21
70294;DHT22;74367;35.280;-77.632;2023-12-04T05:31:12;18.05;91.26
70294;DHT22;74367;35.280;-77.632;2023-12-04T05:33:37;18.08;90.67
70294;DHT22;74367;35.280;-77.632;2023-12-04T05:36:04;18.00;90.55
70294;DHT22;74367;35.280;-77.632;2023-12-04T05:38:30;18.05;90.20
70294;DHT22;74367;35.280;-77.632;2023-12-04T05:40:56;18.11;90.07
70294;DHT22;74367;35.280;-77.632;2023-12-04T05:43:22;18.07;90.46
70294;DHT22;74367;35.280;-77.632;2023-12-04T05:45:49;17.97;90.60
70294;DHT22;74367;35.280;-77.632;2023-12-04T05:48:14;17.94;90.93
70294;DHT22;74367;35.280;-77.632;2023-12-04T05:50:40;17.90;90.18
70294;DHT22;74367;35.280;-77.632;2023-12-04T05:53:07;17.87;91.02
70294;DHT22;74367;35.280;-77.632;2023-12-04T05:55:33;17.77;90.20
70294;DHT22;74367;35.280;-77.632;2023-12-04T05:57:59;17.80;90.24
70294;DHT22;74367;35.280;-77.632;2023-12-04T06:00:25;17.80;89.64
70294;DHT22;74367;35.280;-77.632;2023-12-04T06:02:51;17.80;89.69
70294;DHT22;74367;35.280;-77.632;2023-12-04T06:05:17;17.88;89.39
70294;DHT22;74367;35.280;-77.632;2023-12-04T06:07:43;17.80;89.82
70294;DHT22;74367;35.280;-77.632;2023-12-04T06:10:09;17.70;91.40
70294;DHT22;74367;35.280;-77.632;2023-12-04T06:12:35;17.62;90.28
70294;DHT22;74367;35.280;-77.632;2023-12-04T06:15:01;17.69;89.94
70294;DHT22;74367;35.280;-77.632;2023-12-04T06:17:27;17.65;90.75
70294;DHT22;74367;35.280;-77.632;2023-12-04T06:19:54;17.63;90.59
70294;DHT22;74367;35.280;-77.632;2023-12-04T06:22:20;17.59;90.52
70294;DHT22;74367;35.280;-77.632;2023-12-04T06:24:50;17.54;91.11
70294;DHT22;74367;35.280;-77.632;2023-12-04T06:27:18;17.54;90.79
70294;DHT22;74367;35.280;-77.632;2023-12-04T06:29:48;17.51;89.87
70294;DHT22;74367;35.280;-77.632;2023-12-04T06:32:14;17.51;90.85
70294;DHT22;74367;35.280;-77.632;2023-12-04T06:34:41;17.50;90.68
70294;DHT22;74367;35.280;-77.632;2023-12-04T06:37:10;17.46;90.33
70294;DHT22;74367;35.280;-77.632;2023-12-04T06:39:37;17.36;90.60
70294;DHT22;74367;35.280;-77.632;2023-12-04T06:42:08;17.40;90.32
70294;DHT22;74367;35.280;-77.632;2023-12-04T06:44:34;17.33;89.69
70294;DHT22;74367;35.280;-77.632;2023-12-04T06:47:01;17.38;91.04
70294;DHT22;74367;35.280;-77.632;2023-12-04T06:49:32;17.30;90.19
70294;DHT22;74367;35.280;-77.632;2023-12-04T06:52:00;17.26;90.13
70294;DHT22;74367;35.280;-77.632;2023-12-04T06:54:27;17.22;90.79
70294;DHT22;74367;35.280;-77.632;2023-12-04T06:56:53;17.19;90.34
70294;DHT22;74367;35.280;-77.632;2023-12-04T06:59:19;17.11;91.23
70294;DHT22;74367;35.280;-77.632;2023-12-04T07:01:45;17.14;90.88
70294;DHT22;74367;35.280;-77.632;2023-12-04T07:04:11;17.22;90.50
70294;DHT22;74367;35.280;-77.632;2023-12-04T07:06:38;17.18;90.12
70294;DHT22;74367;35.280;-77.632;2023-12-04T07:09:05;17.11;89.67
70294;DHT22;74367;35.280;-77.632;2023-12-04T07:11:33;17.15;90.11
70294;DHT22;74367;35.280;-77.632;2023-12-04T07:13:59;17.18;90.10
70294;DHT22;74367;35.280;-77.632;2023-12-04T07:16:25;17.15;89.86
70294;DHT22;74367;35.280;-77.632;2023-12-04T07:18:51;17.12;89.61
70294;DHT22;74367;35.280;-77.632;2023-12-04T07:21:17;16.96;89.61
70294;DHT22;74367;35.280;-77.632;2023-12-04T07:23:43;17.04;89.52
70294;DHT22;74367;35.280;-77.632;2023-12-04T07:26:09;16.92;90.06
70294;DHT22;74367;35.280;-77.632;2023-12-04T07:28:35;16.89;89.90
70294;DHT22;74367;35.280;-77.632;2023-12-04T07:31:01;16.85;89.95
70294;DHT22;74367;35.280;-77.632;2023-12-04T07:33:30;16.85;90.33
70294;DHT22;74367;35.280;-77.632;2023-12-04T07:35:56;16.89;89.68
70294;DHT22;74367;35.280;-77.632;2023-12-04T07:38:22;16.88;89.41
70294;DHT22;74367;35.280;-77.632;2023-12-04T07:40:48;16.82;89.92
70294;DHT22;74367;35.280;-77.632;2023-12-04T07:43:14;16.72;89.97
70294;DHT22;74367;35.280;-77.632;2023-12-04T07:45:41;16.74;89.65
70294;DHT22;74367;35.280;-77.632;2023-12-04T07:48:07;16.72;90.24
70294;DHT22;74367;35.280;-77.632;2023-12-04T07:50:32;16.78;91.00
70294;DHT22;74367;35.280;-77.632;2023-12-04T07:52:59;16.68;89.58
70294;DHT22;74367;35.280;-77.632;2023-12-04T07:55:25;16.63;89.91
70294;DHT22;74367;35.280;-77.632;2023-12-04T07:57:51;16.49;90.01
70294;DHT22;74367;35.280;-77.632;2023-12-04T08:00:17;16.47;90.09
70294;DHT22;74367;35.280;-77.632;2023-12-04T08:02:44;16.59;89.72
70294;DHT22;74367;35.280;-77.632;2023-12-04T08:05:12;16.46;90.39
70294;DHT22;74367;35.280;-77.632;2023-12-04T08:07:38;16.36;90.27
70294;DHT22;74367;35.280;-77.632;2023-12-04T08:10:05;16.37;90.35
70294;DHT22;74367;35.280;-77.632;2023-12-04T08:12:31;16.24;91.20
70294;DHT22;74367;35.280;-77.632;2023-12-04T08:14:59;16.29;90.81
70294;DHT22;74367;35.280;-77.632;2023-12-04T08:17:25;16.23;90.77
70294;DHT22;74367;35.280;-77.632;2023-12-04T08:19:51;16.14;90.99
70294;DHT22;74367;35.280;-77.632;2023-12-04T08:22:17;16.02;90.90
70294;DHT22;74367;35.280;-77.632;2023-12-04T08:24:43;16.14;91.06
70294;DHT22;74367;35.280;-77.632;2023-12-04T08:27:09;16.13;90.89
70294;DHT22;74367;35.280;-77.632;2023-12-04T08:29:35;16.06;90.94
70294;DHT22;74367;35.280;-77.632;2023-12-04T08:32:01;15.96;91.03
70294;DHT22;74367;35.280;-77.632;2023-12-04T08:34:27;15.89;91.45
70294;DHT22;74367;35.280;-77.632;2023-12-04T08:36:53;15.88;92.08
70294;DHT22;74367;35.280;-77.632;2023-12-04T08:39:18;15.72;92.91
70294;DHT22;74367;35.280;-77.632;2023-12-04T08:41:45;15.86;91.90
70294;DHT22;74367;35.280;-77.632;2023-12-04T08:44:13;15.79;91.68
70294;DHT22;74367;35.280;-77.632;2023-12-04T08:46:40;15.81;91.82
70294;DHT22;74367;35.280;-77.632;2023-12-04T08:49:05;15.78;92.01
70294;DHT22;74367;35.280;-77.632;2023-12-04T08:51:31;15.69;92.11
70294;DHT22;74367;35.280;-77.632;2023-12-04T08:53:57;15.82;91.31
70294;DHT22;74367;35.280;-77.632;2023-12-04T08:56:23;15.75;91.51
70294;DHT22;74367;35.280;-77.632;2023-12-04T08:58:49;15.72;91.56
70294;DHT22;74367;35.280;-77.632;2023-12-04T09:01:16;15.57;92.18
70294;DHT22;74367;35.280;-77.632;2023-12-04T09:03:42;15.51;92.19
70294;DHT22;74367;35.280;-77.632;2023-12-04T09:06:08;15.41;92.67
70294;DHT22;74367;35.280;-77.632;2023-12-04T09:08:34;15.38;93.08
70294;DHT22;74367;35.280;-77.632;2023-12-04T09:11:00;15.31;92.46
70294;DHT22;74367;35.280;-77.632;2023-12-04T09:13:26;15.31;92.64
70294;DHT22;74367;35.280;-77.632;2023-12-04T09:15:52;15.31;92.87
70294;DHT22;74367;35.280;-77.632;2023-12-04T09:18:18;15.35;93.15
70294;DHT22;74367;35.280;-77.632;2023-12-04T09:20:44;15.35;93.04
70294;DHT22;74367;35.280;-77.632;2023-12-04T09:23:10;15.16;92.94
70294;DHT22;74367;35.280;-77.632;2023-12-04T09:25:37;15.10;92.79
70294;DHT22;74367;35.280;-77.632;2023-12-04T09:28:03;14.90;93.37
70294;DHT22;74367;35.280;-77.632;2023-12-04T09:30:29;15.19;93.14
70294;DHT22;74367;35.280;-77.632;2023-12-04T09:32:55;15.11;93.32
70294;DHT22;74367;35.280;-77.632;2023-12-04T09:35:21;15.00;92.48
70294;DHT22;74367;35.280;-77.632;2023-12-04T09:37:48;15.10;92.75
70294;DHT22;74367;35.280;-77.632;2023-12-04T09:40:16;15.26;92.72
70294;DHT22;74367;35.280;-77.632;2023-12-04T09:42:42;15.11;93.18
70294;DHT22;74367;35.280;-77.632;2023-12-04T09:45:09;15.00;92.29
70294;DHT22;74367;35.280;-77.632;2023-12-04T09:47:36;15.07;91.85
70294;DHT22;74367;35.280;-77.632;2023-12-04T09:50:02;14.83;92.89
70294;DHT22;74367;35.280;-77.632;2023-12-04T09:52:28;14.96;92.97
70294;DHT22;74367;35.280;-77.632;2023-12-04T09:54:55;14.94;92.99
70294;DHT22;74367;35.280;-77.632;2023-12-04T09:57:23;14.76;92.76
70294;DHT22;74367;35.280;-77.632;2023-12-04T09:59:51;14.89;92.19
70294;DHT22;74367;35.280;-77.632;2023-12-04T10:02:19;14.86;92.72
70294;DHT22;74367;35.280;-77.632;2023-12-04T10:04:45;14.79;93.08
70294;DHT22;74367;35.280;-77.632;2023-12-04T10:07:11;14.93;92.79
70294;DHT22;74367;35.280;-77.632;2023-12-04T10:09:37;14.63;92.83
70294;DHT22;74367;35.280;-77.632;2023-12-04T10:12:06;14.77;92.33
70294;DHT22;74367;35.280;-77.632;2023-12-04T10:14:31;14.83;92.44
70294;DHT22;74367;35.280;-77.632;2023-12-04T10:16:57;14.82;93.04
70294;DHT22;74367;35.280;-77.632;2023-12-04T10:19:28;14.80;92.75
70294;DHT22;74367;35.280;-77.632;2023-12-04T10:21:58;14.77;92.70
70294;DHT22;74367;35.280;-77.632;2023-12-04T10:24:36;14.76;92.75
70294;DHT22;74367;35.280;-77.632;2023-12-04T10:27:07;14.79;92.66
70294;DHT22;74367;35.280;-77.632;2023-12-04T10:29:48;14.71;92.42
70294;DHT22;74367;35.280;-77.632;2023-12-04T10:32:19;14.61;92.63
70294;DHT22;74367;35.280;-77.632;2023-12-04T10:34:47;14.69;92.13
70294;DHT22;74367;35.280;-77.632;2023-12-04T10:37:14;14.73;91.89
70294;DHT22;74367;35.280;-77.632;2023-12-04T10:39:51;14.58;93.49
70294;DHT22;74367;35.280;-77.632;2023-12-04T10:42:27;14.51;93.14
70294;DHT22;74367;35.280;-77.632;2023-12-04T10:44:58;14.41;93.03
70294;DHT22;74367;35.280;-77.632;2023-12-04T10:47:24;14.44;92.80
70294;DHT22;74367;35.280;-77.632;2023-12-04T10:49:50;14.44;93.76
70294;DHT22;74367;35.280;-77.632;2023-12-04T10:52:17;14.58;92.73
70294;DHT22;74367;35.280;-77.632;2023-12-04T10:54:50;14.52;93.86
70294;DHT22;74367;35.280;-77.632;2023-12-04T10:57:31;14.46;93.40
70294;DHT22;74367;35.280;-77.632;2023-12-04T11:00:03;14.44;93.14
70294;DHT22;74367;35.280;-77.632;2023-12-04T11:02:33;14.51;93.64
70294;DHT22;74367;35.280;-77.632;2023-12-04T11:05:07;14.25;92.96
70294;DHT22;74367;35.280;-77.632;2023-12-04T11:07:41;14.42;92.97
70294;DHT22;74367;35.280;-77.632;2023-12-04T11:10:08;14.61;92.41
70294;DHT22;74367;35.280;-77.632;2023-12-04T11:12:39;14.48;92.73
70294;DHT22;74367;35.280;-77.632;2023-12-04T11:15:06;14.29;93.35
70294;DHT22;74367;35.280;-77.632;2023-12-04T11:17:37;14.32;93.62
70294;DHT22;74367;35.280;-77.632;2023-12-04T11:20:17;14.25;93.37
70294;DHT22;74367;35.280;-77.632;2023-12-04T11:22:45;14.08;93.67
70294;DHT22;74367;35.280;-77.632;2023-12-04T11:25:15;14.21;94.26
70294;DHT22;74367;35.280;-77.632;2023-12-04T11:27:42;14.11;94.07
70294;DHT22;74367;35.280;-77.632;2023-12-04T11:30:08;14.18;93.99
70294;DHT22;74367;35.280;-77.632;2023-12-04T11:32:48;14.18;93.35
70294;DHT22;74367;35.280;-77.632;2023-12-04T11:35:15;14.20;93.75
70294;DHT22;74367;35.280;-77.632;2023-12-04T11:37:44;14.14;93.13
70294;DHT22;74367;35.280;-77.632;2023-12-04T11:40:16;14.07;94.06
70294;DHT22;74367;35.280;-77.632;2023-12-04T11:42:43;14.13;93.89
70294;DHT22;74367;35.280;-77.632;2023-12-04T11:45:09;14.10;94.38
70294;DHT22;74367;35.280;-77.632;2023-12-04T11:47:57;13.94;94.36
70294;DHT22;74367;35.280;-77.632;2023-12-04T11:50:26;14.05;93.15
70294;DHT22;74367;35.280;-77.632;2023-12-04T11:52:52;14.13;93.59
70294;DHT22;74367;35.280;-77.632;2023-12-04T11:55:23;14.08;93.31
70294;DHT22;74367;35.280;-77.632;2023-12-04T11:57:53;13.93;93.09
70294;DHT22;74367;35.280;-77.632;2023-12-04T12:00:23;14.11;92.84
70294;DHT22;74367;35.280;-77.632;2023-12-04T12:05:23;14.04;93.35
70294;DHT22;74367;35.280;-77.632;2023-12-04T12:07:50;13.94;93.61
70294;DHT22;74367;35.280;-77.632;2023-12-04T12:10:17;13.71;93.06
70294;DHT22;74367;35.280;-77.632;2023-12-04T12:12:43;13.77;93.68
70294;DHT22;74367;35.280;-77.632;2023-12-04T12:15:10;13.67;93.08
70294;DHT22;74367;35.280;-77.632;2023-12-04T12:17:41;13.80;92.97
70294;DHT22;74367;35.280;-77.632;2023-12-04T12:20:08;13.91;93.11
70294;DHT22;74367;35.280;-77.632;2023-12-04T12:22:35;13.88;93.47
70294;DHT22;74367;35.280;-77.632;2023-12-04T12:25:04;13.84;93.55
70294;DHT22;74367;35.280;-77.632;2023-12-04T12:27:30;13.66;92.96
70294;DHT22;74367;35.280;-77.632;2023-12-04T12:29:57;13.73;92.74
70294;DHT22;74367;35.280;-77.632;2023-12-04T12:32:23;13.78;93.22
70294;DHT22;74367;35.280;-77.632;2023-12-04T12:34:49;13.84;93.53
70294;DHT22;74367;35.280;-77.632;2023-12-04T12:37:15;13.70;92.92
70294;DHT22;74367;35.280;-77.632;2023-12-04T12:39:41;13.63;93.62
70294;DHT22;74367;35.280;-77.632;2023-12-04T12:42:07;13.74;93.36
70294;DHT22;74367;35.280;-77.632;2023-12-04T12:44:38;13.91;93.08
70294;DHT22;74367;35.280;-77.632;2023-12-04T12:47:06;13.70;93.46
70294;DHT22;74367;35.280;-77.632;2023-12-04T12:49:33;13.76;93.11
70294;DHT22;74367;35.280;-77.632;2023-12-04T12:52:01;13.63;92.97
70294;DHT22;74367;35.280;-77.632;2023-12-04T12:54:27;13.46;93.47
70294;DHT22;74367;35.280;-77.632;2023-12-04T12:56:59;13.62;92.82
70294;DHT22;74367;35.280;-77.632;2023-12-04T12:59:26;13.62;92.99
70294;DHT22;74367;35.280;-77.632;2023-12-04T13:01:53;13.67;92.67
70294;DHT22;74367;35.280;-77.632;2023-12-04T13:04:19;13.78;92.96
70294;DHT22;74367;35.280;-77.632;2023-12-04T13:06:44;13.77;93.08
70294;DHT22;74367;35.280;-77.632;2023-12-04T13:09:12;13.83;93.36
70294;DHT22;74367;35.280;-77.632;2023-12-04T13:11:46;13.81;93.44
70294;DHT22;74367;35.280;-77.632;2023-12-04T13:14:13;13.77;93.38
70294;DHT22;74367;35.280;-77.632;2023-12-04T13:16:39;13.81;92.87
70294;DHT22;74367;35.280;-77.632;2023-12-04T13:19:05;13.73;93.26
70294;DHT22;74367;35.280;-77.632;2023-12-04T13:21:32;13.71;93.12
70294;DHT22;74367;35.280;-77.632;2023-12-04T13:23:58;13.86;93.07
70294;DHT22;74367;35.280;-77.632;2023-12-04T13:26:23;13.86;93.04
70294;DHT22;74367;35.280;-77.632;2023-12-04T13:28:49;13.91;93.38
70294;DHT22;74367;35.280;-77.632;2023-12-04T13:31:15;13.97;92.43
70294;DHT22;74367;35.280;-77.632;2023-12-04T13:33:41;14.08;92.76
70294;DHT22;74367;35.280;-77.632;2023-12-04T13:36:12;13.87;93.13
70294;DHT22;74367;35.280;-77.632;2023-12-04T13:38:38;13.97;92.87
70294;DHT22;74367;35.280;-77.632;2023-12-04T13:41:04;14.03;93.45
70294;DHT22;74367;35.280;-77.632;2023-12-04T13:43:49;14.08;92.81
70294;DHT22;74367;35.280;-77.632;2023-12-04T13:46:19;14.08;92.79
70294;DHT22;74367;35.280;-77.632;2023-12-04T13:48:45;14.07;91.31
70294;DHT22;74367;35.280;-77.632;2023-12-04T13:51:12;14.00;90.89
70294;DHT22;74367;35.280;-77.632;2023-12-04T13:53:39;14.13;91.64
70294;DHT22;74367;35.280;-77.632;2023-12-04T13:56:12;14.14;91.99
70294;DHT22;74367;35.280;-77.632;2023-12-04T13:58:58;14.11;90.95
70294;DHT22;74367;35.280;-77.632;2023-12-04T14:01:26;14.14;91.18
70294;DHT22;74367;35.280;-77.632;2023-12-04T14:03:55;14.25;91.08
70294;DHT22;74367;35.280;-77.632;2023-12-04T14:06:28;14.29;91.45
70294;DHT22;74367;35.280;-77.632;2023-12-04T14:08:56;14.49;91.28
70294;DHT22;74367;35.280;-77.632;2023-12-04T14:11:23;14.59;91.32
70294;DHT22;74367;35.280;-77.632;2023-12-04T14:13:49;14.62;88.96
70294;DHT22;74367;35.280;-77.632;2023-12-04T14:16:15;14.75;89.07
70294;DHT22;74367;35.280;-77.632;2023-12-04T14:18:41;14.80;89.63
70294;DHT22;74367;35.280;-77.632;2023-12-04T14:21:10;14.82;88.52
70294;DHT22;74367;35.280;-77.632;2023-12-04T14:23:36;14.89;87.73
70294;DHT22;74367;35.280;-77.632;2023-12-04T14:26:02;14.99;87.12
70294;DHT22;74367;35.280;-77.632;2023-12-04T14:28:28;14.99;85.27
70294;DHT22;74367;35.280;-77.632;2023-12-04T14:30:54;15.10;86.43
70294;DHT22;74367;35.280;-77.632;2023-12-04T14:33:21;15.13;86.00
70294;DHT22;74367;35.280;-77.632;2023-12-04T14:35:47;15.10;86.11
70294;DHT22;74367;35.280;-77.632;2023-12-04T14:38:13;15.31;85.83
70294;DHT22;74367;35.280;-77.632;2023-12-04T14:40:40;15.41;85.40
70294;DHT22;74367;35.280;-77.632;2023-12-04T14:43:06;15.50;81.66
70294;DHT22;74367;35.280;-77.632;2023-12-04T14:45:35;15.54;81.66
70294;DHT22;74367;35.280;-77.632;2023-12-04T14:48:05;15.64;78.68
70294;DHT22;74367;35.280;-77.632;2023-12-04T14:50:34;15.81;78.38
70294;DHT22;74367;35.280;-77.632;2023-12-04T14:53:04;15.92;75.70
70294;DHT22;74367;35.280;-77.632;2023-12-04T14:55:55;15.96;78.16
70294;DHT22;74367;35.280;-77.632;2023-12-04T14:58:39;15.98;75.09
70294;DHT22;74367;35.280;-77.632;2023-12-04T15:01:14;16.05;76.47
70294;DHT22;74367;35.280;-77.632;2023-12-04T15:04:14;16.13;68.19
70294;DHT22;74367;35.280;-77.632;2023-12-04T15:06:59;16.16;69.26